< < Back
Terminal Aerodrome Forecast


Current Version              Previous Versions:   1  2  3  4  5  6  7  8  9  

Terminal Aerodrome Forecast

842
FTUS42 KFFC 212131 AAC
TAFATL
TAF AMD
KATL 212131Z 2122/2224 09008KT P6SM OVC011
     FM220500 09006KT 5SM -DZ BR OVC007
     FM220900 09008KT 2SM -DZ BR OVC003
     FM221600 09007KT 5SM -DZ BR OVC007=



Latest METAR

483
SAUS70 KWBC 220100 RRH
MTRATL
METAR KATL 220052Z 09010KT 10SM FEW014 BKN021 OVC037 09/07 A3009 RMK AO2
RAB31E41 SLP192 P0000 T00940067


USA.gov is the U.S. government's official web portal to all federal, state and local government web resources and services.